sensor_id;sensor_type;location;lat;lon;timestamp;P1;durP1;ratioP1;P2;durP2;ratioP2
8819;SDS011;4446;50.876;4.736;2023-11-21T00:00:26;23.63;;;10.60;;
8819;SDS011;4446;50.876;4.736;2023-11-21T00:02:54;22.73;;;10.95;;
8819;SDS011;4446;50.876;4.736;2023-11-21T00:05:22;22.63;;;10.02;;
8819;SDS011;4446;50.876;4.736;2023-11-21T00:07:49;22.58;;;10.73;;
8819;SDS011;4446;50.876;4.736;2023-11-21T00:10:16;22.33;;;10.38;;
8819;SDS011;4446;50.876;4.736;2023-11-21T00:12:43;19.33;;;10.32;;
8819;SDS011;4446;50.876;4.736;2023-11-21T00:15:13;22.23;;;9.82;;
8819;SDS011;4446;50.876;4.736;2023-11-21T00:17:40;24.88;;;11.25;;
8819;SDS011;4446;50.876;4.736;2023-11-21T00:20:08;22.75;;;10.20;;
8819;SDS011;4446;50.876;4.736;2023-11-21T00:22:39;24.77;;;11.15;;
8819;SDS011;4446;50.876;4.736;2023-11-21T00:25:06;21.30;;;9.90;;
8819;SDS011;4446;50.876;4.736;2023-11-21T00:27:34;21.77;;;10.60;;
8819;SDS011;4446;50.876;4.736;2023-11-21T00:30:01;23.17;;;11.30;;
8819;SDS011;4446;50.876;4.736;2023-11-21T00:32:30;20.23;;;10.20;;
8819;SDS011;4446;50.876;4.736;2023-11-21T00:34:57;24.05;;;10.93;;
8819;SDS011;4446;50.876;4.736;2023-11-21T00:37:24;23.60;;;10.63;;
8819;SDS011;4446;50.876;4.736;2023-11-21T00:39:53;23.30;;;11.48;;
8819;SDS011;4446;50.876;4.736;2023-11-21T00:42:19;22.05;;;10.10;;
8819;SDS011;4446;50.876;4.736;2023-11-21T00:44:47;23.55;;;10.43;;
8819;SDS011;4446;50.876;4.736;2023-11-21T00:47:14;24.13;;;8.93;;
8819;SDS011;4446;50.876;4.736;2023-11-21T00:49:41;21.92;;;10.63;;
8819;SDS011;4446;50.876;4.736;2023-11-21T00:52:09;23.15;;;11.73;;
8819;SDS011;4446;50.876;4.736;2023-11-21T00:54:36;27.20;;;11.07;;
8819;SDS011;4446;50.876;4.736;2023-11-21T00:57:04;22.55;;;9.57;;
8819;SDS011;4446;50.876;4.736;2023-11-21T00:59:31;19.63;;;9.52;;
8819;SDS011;4446;50.876;4.736;2023-11-21T01:01:58;25.02;;;11.50;;
8819;SDS011;4446;50.876;4.736;2023-11-21T01:04:26;18.77;;;9.23;;
8819;SDS011;4446;50.876;4.736;2023-11-21T01:06:54;19.20;;;9.70;;
8819;SDS011;4446;50.876;4.736;2023-11-21T01:09:20;20.35;;;9.27;;
8819;SDS011;4446;50.876;4.736;2023-11-21T01:11:47;20.67;;;8.73;;
8819;SDS011;4446;50.876;4.736;2023-11-21T01:14:16;21.02;;;9.77;;
8819;SDS011;4446;50.876;4.736;2023-11-21T01:16:42;21.10;;;9.35;;
8819;SDS011;4446;50.876;4.736;2023-11-21T01:19:09;16.42;;;9.02;;
8819;SDS011;4446;50.876;4.736;2023-11-21T01:21:36;18.05;;;8.07;;
8819;SDS011;4446;50.876;4.736;2023-11-21T01:24:03;21.45;;;8.75;;
8819;SDS011;4446;50.876;4.736;2023-11-21T01:26:32;19.73;;;8.70;;
8819;SDS011;4446;50.876;4.736;2023-11-21T01:28:59;17.65;;;8.27;;
8819;SDS011;4446;50.876;4.736;2023-11-21T01:31:27;17.58;;;7.95;;
8819;SDS011;4446;50.876;4.736;2023-11-21T01:33:55;18.80;;;8.82;;
8819;SDS011;4446;50.876;4.736;2023-11-21T01:36:22;16.08;;;7.75;;
8819;SDS011;4446;50.876;4.736;2023-11-21T01:38:49;16.73;;;7.88;;
8819;SDS011;4446;50.876;4.736;2023-11-21T01:41:15;24.15;;;10.05;;
8819;SDS011;4446;50.876;4.736;2023-11-21T01:43:42;19.35;;;8.05;;
8819;SDS011;4446;50.876;4.736;2023-11-21T01:46:09;16.80;;;7.82;;
8819;SDS011;4446;50.876;4.736;2023-11-21T01:48:38;18.40;;;8.32;;
8819;SDS011;4446;50.876;4.736;2023-11-21T01:51:05;17.77;;;8.00;;
8819;SDS011;4446;50.876;4.736;2023-11-21T01:53:33;20.48;;;8.93;;
8819;SDS011;4446;50.876;4.736;2023-11-21T01:56:01;18.73;;;8.45;;
8819;SDS011;4446;50.876;4.736;2023-11-21T01:58:30;19.27;;;9.05;;
8819;SDS011;4446;50.876;4.736;2023-11-21T02:00:58;18.27;;;8.10;;
8819;SDS011;4446;50.876;4.736;2023-11-21T02:03:25;18.08;;;7.97;;
8819;SDS011;4446;50.876;4.736;2023-11-21T02:05:53;16.45;;;7.70;;
8819;SDS011;4446;50.876;4.736;2023-11-21T02:08:20;20.80;;;8.18;;
8819;SDS011;4446;50.876;4.736;2023-11-21T02:10:47;23.08;;;9.40;;
8819;SDS011;4446;50.876;4.736;2023-11-21T02:13:14;21.77;;;9.13;;
8819;SDS011;4446;50.876;4.736;2023-11-21T02:15:42;18.83;;;8.70;;
8819;SDS011;4446;50.876;4.736;2023-11-21T02:18:09;22.77;;;8.82;;
8819;SDS011;4446;50.876;4.736;2023-11-21T02:20:36;18.58;;;8.40;;
8819;SDS011;4446;50.876;4.736;2023-11-21T02:23:05;22.08;;;9.02;;
8819;SDS011;4446;50.876;4.736;2023-11-21T02:25:33;23.85;;;9.32;;
8819;SDS011;4446;50.876;4.736;2023-11-21T02:28:02;21.73;;;8.65;;
8819;SDS011;4446;50.876;4.736;2023-11-21T02:30:31;20.08;;;8.05;;
8819;SDS011;4446;50.876;4.736;2023-11-21T02:32:59;19.63;;;7.97;;
8819;SDS011;4446;50.876;4.736;2023-11-21T02:35:26;19.33;;;8.27;;
8819;SDS011;4446;50.876;4.736;2023-11-21T02:37:53;16.73;;;6.93;;
8819;SDS011;4446;50.876;4.736;2023-11-21T02:40:22;22.00;;;8.93;;
8819;SDS011;4446;50.876;4.736;2023-11-21T02:42:50;16.35;;;7.53;;
8819;SDS011;4446;50.876;4.736;2023-11-21T02:45:17;16.20;;;7.53;;
8819;SDS011;4446;50.876;4.736;2023-11-21T02:47:46;19.05;;;8.70;;
8819;SDS011;4446;50.876;4.736;2023-11-21T02:50:14;19.90;;;7.97;;
8819;SDS011;4446;50.876;4.736;2023-11-21T02:52:41;17.00;;;7.78;;
8819;SDS011;4446;50.876;4.736;2023-11-21T02:55:09;20.92;;;7.85;;
8819;SDS011;4446;50.876;4.736;2023-11-21T02:57:37;21.35;;;9.18;;
8819;SDS011;4446;50.876;4.736;2023-11-21T03:00:05;19.25;;;8.30;;
8819;SDS011;4446;50.876;4.736;2023-11-21T03:02:33;19.77;;;8.15;;
8819;SDS011;4446;50.876;4.736;2023-11-21T03:05:01;21.05;;;9.05;;
8819;SDS011;4446;50.876;4.736;2023-11-21T03:07:30;21.45;;;8.43;;
8819;SDS011;4446;50.876;4.736;2023-11-21T03:09:57;19.67;;;8.02;;
8819;SDS011;4446;50.876;4.736;2023-11-21T03:12:24;17.35;;;8.02;;
8819;SDS011;4446;50.876;4.736;2023-11-21T03:14:52;16.45;;;6.80;;
8819;SDS011;4446;50.876;4.736;2023-11-21T03:17:20;14.73;;;6.93;;
8819;SDS011;4446;50.876;4.736;2023-11-21T03:19:47;19.23;;;8.32;;
8819;SDS011;4446;50.876;4.736;2023-11-21T03:22:14;20.60;;;8.45;;
8819;SDS011;4446;50.876;4.736;2023-11-21T03:24:41;20.52;;;7.65;;
8819;SDS011;4446;50.876;4.736;2023-11-21T03:27:08;17.50;;;6.95;;
8819;SDS011;4446;50.876;4.736;2023-11-21T03:29:34;20.27;;;8.15;;
8819;SDS011;4446;50.876;4.736;2023-11-21T03:32:03;18.92;;;7.38;;
8819;SDS011;4446;50.876;4.736;2023-11-21T03:34:32;17.20;;;7.32;;
8819;SDS011;4446;50.876;4.736;2023-11-21T03:36:59;19.80;;;8.05;;
8819;SDS011;4446;50.876;4.736;2023-11-21T03:39:25;21.13;;;9.27;;
8819;SDS011;4446;50.876;4.736;2023-11-21T03:41:54;19.17;;;7.75;;
8819;SDS011;4446;50.876;4.736;2023-11-21T03:44:21;17.80;;;8.95;;
8819;SDS011;4446;50.876;4.736;2023-11-21T03:46:48;22.38;;;8.38;;
8819;SDS011;4446;50.876;4.736;2023-11-21T03:49:16;16.35;;;7.65;;
8819;SDS011;4446;50.876;4.736;2023-11-21T03:51:43;15.90;;;7.68;;
8819;SDS011;4446;50.876;4.736;2023-11-21T03:54:10;19.70;;;8.18;;
8819;SDS011;4446;50.876;4.736;2023-11-21T03:56:37;19.23;;;8.05;;
8819;SDS011;4446;50.876;4.736;2023-11-21T03:59:04;18.92;;;8.40;;
8819;SDS011;4446;50.876;4.736;2023-11-21T04:01:30;20.00;;;8.63;;
8819;SDS011;4446;50.876;4.736;2023-11-21T04:03:58;21.77;;;9.10;;
8819;SDS011;4446;50.876;4.736;2023-11-21T04:06:26;17.90;;;8.40;;
8819;SDS011;4446;50.876;4.736;2023-11-21T04:08:53;21.40;;;8.65;;
8819;SDS011;4446;50.876;4.736;2023-11-21T04:11:20;23.10;;;8.20;;
8819;SDS011;4446;50.876;4.736;2023-11-21T04:13:47;14.85;;;7.15;;
8819;SDS011;4446;50.876;4.736;2023-11-21T04:16:13;20.77;;;7.93;;
8819;SDS011;4446;50.876;4.736;2023-11-21T04:18:40;15.98;;;7.43;;
8819;SDS011;4446;50.876;4.736;2023-11-21T04:21:07;15.50;;;7.55;;
8819;SDS011;4446;50.876;4.736;2023-11-21T04:23:36;18.88;;;7.80;;
8819;SDS011;4446;50.876;4.736;2023-11-21T04:26:03;19.70;;;8.38;;
8819;SDS011;4446;50.876;4.736;2023-11-21T04:28:30;16.98;;;7.57;;
8819;SDS011;4446;50.876;4.736;2023-11-21T04:30:57;15.10;;;7.05;;
8819;SDS011;4446;50.876;4.736;2023-11-21T04:33:24;16.98;;;7.07;;
8819;SDS011;4446;50.876;4.736;2023-11-21T04:35:51;18.73;;;8.27;;
8819;SDS011;4446;50.876;4.736;2023-11-21T04:38:18;24.73;;;8.85;;
8819;SDS011;4446;50.876;4.736;2023-11-21T04:40:46;19.13;;;8.15;;
8819;SDS011;4446;50.876;4.736;2023-11-21T04:43:12;16.60;;;7.82;;
8819;SDS011;4446;50.876;4.736;2023-11-21T04:45:39;16.35;;;8.10;;
8819;SDS011;4446;50.876;4.736;2023-11-21T04:48:06;13.30;;;6.63;;
8819;SDS011;4446;50.876;4.736;2023-11-21T04:50:33;12.52;;;7.28;;
8819;SDS011;4446;50.876;4.736;2023-11-21T04:53:00;15.45;;;7.28;;
8819;SDS011;4446;50.876;4.736;2023-11-21T04:55:28;13.45;;;7.10;;
8819;SDS011;4446;50.876;4.736;2023-11-21T04:57:56;17.63;;;7.75;;
8819;SDS011;4446;50.876;4.736;2023-11-21T05:00:23;15.13;;;7.55;;
8819;SDS011;4446;50.876;4.736;2023-11-21T05:02:50;17.25;;;8.02;;
8819;SDS011;4446;50.876;4.736;2023-11-21T05:05:17;16.85;;;7.18;;
8819;SDS011;4446;50.876;4.736;2023-11-21T05:07:44;16.17;;;7.75;;
8819;SDS011;4446;50.876;4.736;2023-11-21T05:10:11;15.10;;;7.10;;
8819;SDS011;4446;50.876;4.736;2023-11-21T05:12:40;18.38;;;7.72;;
8819;SDS011;4446;50.876;4.736;2023-11-21T05:15:09;10.70;;;5.85;;
8819;SDS011;4446;50.876;4.736;2023-11-21T05:17:38;15.00;;;7.07;;
8819;SDS011;4446;50.876;4.736;2023-11-21T05:20:07;14.88;;;6.65;;
8819;SDS011;4446;50.876;4.736;2023-11-21T05:22:35;15.23;;;6.80;;
8819;SDS011;4446;50.876;4.736;2023-11-21T05:25:02;16.73;;;7.53;;
8819;SDS011;4446;50.876;4.736;2023-11-21T05:27:30;12.30;;;6.55;;
8819;SDS011;4446;50.876;4.736;2023-11-21T05:29:57;15.57;;;7.43;;
8819;SDS011;4446;50.876;4.736;2023-11-21T05:32:25;16.77;;;7.65;;
8819;SDS011;4446;50.876;4.736;2023-11-21T05:34:52;13.02;;;6.57;;
8819;SDS011;4446;50.876;4.736;2023-11-21T05:37:19;17.25;;;7.97;;
8819;SDS011;4446;50.876;4.736;2023-11-21T05:39:46;16.30;;;7.68;;
8819;SDS011;4446;50.876;4.736;2023-11-21T05:42:13;15.43;;;6.78;;
8819;SDS011;4446;50.876;4.736;2023-11-21T05:44:41;11.63;;;6.13;;
8819;SDS011;4446;50.876;4.736;2023-11-21T05:47:08;18.17;;;7.35;;
8819;SDS011;4446;50.876;4.736;2023-11-21T05:49:36;17.55;;;7.53;;
8819;SDS011;4446;50.876;4.736;2023-11-21T05:52:04;12.50;;;6.20;;
8819;SDS011;4446;50.876;4.736;2023-11-21T05:54:31;12.73;;;7.20;;
8819;SDS011;4446;50.876;4.736;2023-11-21T05:56:59;14.85;;;6.50;;
8819;SDS011;4446;50.876;4.736;2023-11-21T05:59:26;14.77;;;6.95;;
8819;SDS011;4446;50.876;4.736;2023-11-21T06:01:52;12.88;;;6.47;;
8819;SDS011;4446;50.876;4.736;2023-11-21T06:04:20;12.10;;;6.35;;
8819;SDS011;4446;50.876;4.736;2023-11-21T06:06:51;12.85;;;7.07;;
8819;SDS011;4446;50.876;4.736;2023-11-21T06:09:19;13.05;;;6.35;;
8819;SDS011;4446;50.876;4.736;2023-11-21T06:11:47;12.82;;;6.63;;
8819;SDS011;4446;50.876;4.736;2023-11-21T06:14:14;15.02;;;7.07;;
8819;SDS011;4446;50.876;4.736;2023-11-21T06:16:43;13.18;;;6.53;;
8819;SDS011;4446;50.876;4.736;2023-11-21T06:19:10;13.82;;;6.55;;
8819;SDS011;4446;50.876;4.736;2023-11-21T06:21:37;12.40;;;6.13;;
8819;SDS011;4446;50.876;4.736;2023-11-21T06:24:06;10.90;;;5.65;;
8819;SDS011;4446;50.876;4.736;2023-11-21T06:26:33;12.48;;;6.65;;
8819;SDS011;4446;50.876;4.736;2023-11-21T06:29:00;13.13;;;6.20;;
8819;SDS011;4446;50.876;4.736;2023-11-21T06:31:28;12.02;;;6.03;;
8819;SDS011;4446;50.876;4.736;2023-11-21T06:33:55;14.55;;;6.72;;
8819;SDS011;4446;50.876;4.736;2023-11-21T06:36:24;11.05;;;6.30;;
8819;SDS011;4446;50.876;4.736;2023-11-21T06:38:52;10.90;;;5.78;;
8819;SDS011;4446;50.876;4.736;2023-11-21T06:41:22;10.02;;;5.18;;
8819;SDS011;4446;50.876;4.736;2023-11-21T06:43:48;9.80;;;5.78;;
8819;SDS011;4446;50.876;4.736;2023-11-21T06:46:15;14.93;;;7.07;;
8819;SDS011;4446;50.876;4.736;2023-11-21T06:48:44;12.88;;;6.15;;
8819;SDS011;4446;50.876;4.736;2023-11-21T06:51:11;13.55;;;6.45;;
8819;SDS011;4446;50.876;4.736;2023-11-21T06:53:38;12.10;;;6.07;;
8819;SDS011;4446;50.876;4.736;2023-11-21T06:56:05;11.55;;;6.07;;
8819;SDS011;4446;50.876;4.736;2023-11-21T06:58:43;12.13;;;6.00;;
8819;SDS011;4446;50.876;4.736;2023-11-21T07:01:11;14.07;;;6.70;;
8819;SDS011;4446;50.876;4.736;2023-11-21T07:03:38;13.90;;;6.93;;
8819;SDS011;4446;50.876;4.736;2023-11-21T07:06:06;10.25;;;5.38;;
8819;SDS011;4446;50.876;4.736;2023-11-21T07:08:33;12.23;;;5.82;;
8819;SDS011;4446;50.876;4.736;2023-11-21T07:11:00;17.48;;;7.68;;
8819;SDS011;4446;50.876;4.736;2023-11-21T07:13:28;16.05;;;6.85;;
8819;SDS011;4446;50.876;4.736;2023-11-21T07:15:57;13.40;;;6.00;;
8819;SDS011;4446;50.876;4.736;2023-11-21T07:18:25;14.82;;;6.97;;
8819;SDS011;4446;50.876;4.736;2023-11-21T07:20:52;12.57;;;5.93;;
8819;SDS011;4446;50.876;4.736;2023-11-21T07:23:19;13.00;;;7.32;;
8819;SDS011;4446;50.876;4.736;2023-11-21T07:25:47;16.80;;;7.47;;
8819;SDS011;4446;50.876;4.736;2023-11-21T07:28:14;15.38;;;7.15;;
8819;SDS011;4446;50.876;4.736;2023-11-21T07:30:41;14.60;;;7.55;;
8819;SDS011;4446;50.876;4.736;2023-11-21T07:33:10;16.50;;;7.65;;
8819;SDS011;4446;50.876;4.736;2023-11-21T07:35:37;17.88;;;8.13;;
8819;SDS011;4446;50.876;4.736;2023-11-21T07:38:04;18.88;;;7.70;;
8819;SDS011;4446;50.876;4.736;2023-11-21T07:40:31;22.23;;;8.85;;
8819;SDS011;4446;50.876;4.736;2023-11-21T07:42:58;17.50;;;8.10;;
8819;SDS011;4446;50.876;4.736;2023-11-21T07:45:25;18.50;;;7.60;;
8819;SDS011;4446;50.876;4.736;2023-11-21T07:47:53;16.83;;;7.97;;
8819;SDS011;4446;50.876;4.736;2023-11-21T07:50:22;16.63;;;7.60;;
8819;SDS011;4446;50.876;4.736;2023-11-21T07:52:49;11.35;;;6.45;;
8819;SDS011;4446;50.876;4.736;2023-11-21T07:55:16;14.02;;;6.53;;
8819;SDS011;4446;50.876;4.736;2023-11-21T07:57:43;17.73;;;7.70;;
8819;SDS011;4446;50.876;4.736;2023-11-21T08:00:10;17.73;;;7.63;;
8819;SDS011;4446;50.876;4.736;2023-11-21T08:02:40;15.68;;;8.13;;
8819;SDS011;4446;50.876;4.736;2023-11-21T08:05:08;13.48;;;6.75;;
8819;SDS011;4446;50.876;4.736;2023-11-21T08:07:37;17.35;;;7.60;;
8819;SDS011;4446;50.876;4.736;2023-11-21T08:10:04;16.65;;;7.80;;
8819;SDS011;4446;50.876;4.736;2023-11-21T08:12:35;18.83;;;9.15;;
8819;SDS011;4446;50.876;4.736;2023-11-21T08:15:04;18.33;;;8.40;;
8819;SDS011;4446;50.876;4.736;2023-11-21T08:17:33;17.75;;;8.00;;
8819;SDS011;4446;50.876;4.736;2023-11-21T08:20:01;18.55;;;9.38;;
8819;SDS011;4446;50.876;4.736;2023-11-21T08:22:28;18.15;;;8.23;;
8819;SDS011;4446;50.876;4.736;2023-11-21T08:24:57;18.80;;;8.43;;
8819;SDS011;4446;50.876;4.736;2023-11-21T08:27:24;17.92;;;8.00;;
8819;SDS011;4446;50.876;4.736;2023-11-21T08:29:50;17.95;;;9.07;;
8819;SDS011;4446;50.876;4.736;2023-11-21T08:32:18;26.42;;;11.20;;
8819;SDS011;4446;50.876;4.736;2023-11-21T08:34:45;22.35;;;11.02;;
8819;SDS011;4446;50.876;4.736;2023-11-21T08:37:15;22.02;;;9.43;;
8819;SDS011;4446;50.876;4.736;2023-11-21T08:39:43;19.40;;;10.27;;
8819;SDS011;4446;50.876;4.736;2023-11-21T08:42:12;14.40;;;8.18;;
8819;SDS011;4446;50.876;4.736;2023-11-21T08:44:38;15.95;;;7.82;;
8819;SDS011;4446;50.876;4.736;2023-11-21T08:47:06;13.00;;;7.45;;
8819;SDS011;4446;50.876;4.736;2023-11-21T08:49:33;17.98;;;8.95;;
8819;SDS011;4446;50.876;4.736;2023-11-21T08:52:00;21.35;;;9.77;;
8819;SDS011;4446;50.876;4.736;2023-11-21T08:54:27;18.85;;;9.52;;
8819;SDS011;4446;50.876;4.736;2023-11-21T08:56:54;18.92;;;9.43;;
8819;SDS011;4446;50.876;4.736;2023-11-21T08:59:24;21.45;;;9.25;;
8819;SDS011;4446;50.876;4.736;2023-11-21T09:01:51;13.93;;;8.25;;
8819;SDS011;4446;50.876;4.736;2023-11-21T09:04:18;20.70;;;8.27;;
8819;SDS011;4446;50.876;4.736;2023-11-21T09:06:45;19.20;;;9.52;;
8819;SDS011;4446;50.876;4.736;2023-11-21T09:09:12;16.33;;;7.50;;
8819;SDS011;4446;50.876;4.736;2023-11-21T09:11:39;18.60;;;9.00;;
8819;SDS011;4446;50.876;4.736;2023-11-21T09:14:06;15.20;;;8.30;;
8819;SDS011;4446;50.876;4.736;2023-11-21T09:16:35;21.67;;;9.75;;
8819;SDS011;4446;50.876;4.736;2023-11-21T09:19:02;21.23;;;8.98;;
8819;SDS011;4446;50.876;4.736;2023-11-21T09:21:30;21.15;;;9.18;;
8819;SDS011;4446;50.876;4.736;2023-11-21T09:23:58;21.05;;;10.10;;
8819;SDS011;4446;50.876;4.736;2023-11-21T09:26:25;23.13;;;10.25;;
8819;SDS011;4446;50.876;4.736;2023-11-21T09:28:52;23.17;;;11.27;;
8819;SDS011;4446;50.876;4.736;2023-11-21T09:31:20;29.67;;;10.88;;
8819;SDS011;4446;50.876;4.736;2023-11-21T09:33:49;24.83;;;9.93;;
8819;SDS011;4446;50.876;4.736;2023-11-21T09:36:16;27.85;;;11.38;;
8819;SDS011;4446;50.876;4.736;2023-11-21T09:38:43;25.77;;;9.95;;
8819;SDS011;4446;50.876;4.736;2023-11-21T09:41:11;21.85;;;9.38;;
8819;SDS011;4446;50.876;4.736;2023-11-21T09:43:45;29.02;;;10.57;;
8819;SDS011;4446;50.876;4.736;2023-11-21T09:46:13;23.70;;;9.88;;
8819;SDS011;4446;50.876;4.736;2023-11-21T09:48:45;21.83;;;11.07;;
8819;SDS011;4446;50.876;4.736;2023-11-21T09:51:17;33.30;;;11.13;;
8819;SDS011;4446;50.876;4.736;2023-11-21T09:53:47;25.65;;;10.77;;
8819;SDS011;4446;50.876;4.736;2023-11-21T09:56:17;18.80;;;9.20;;
8819;SDS011;4446;50.876;4.736;2023-11-21T09:58:50;22.95;;;9.82;;
8819;SDS011;4446;50.876;4.736;2023-11-21T10:01:19;21.73;;;9.95;;
8819;SDS011;4446;50.876;4.736;2023-11-21T10:03:47;27.92;;;11.63;;
8819;SDS011;4446;50.876;4.736;2023-11-21T10:06:15;22.92;;;9.88;;
8819;SDS011;4446;50.876;4.736;2023-11-21T10:08:44;17.38;;;9.05;;
8819;SDS011;4446;50.876;4.736;2023-11-21T10:11:11;24.30;;;10.88;;
8819;SDS011;4446;50.876;4.736;2023-11-21T10:13:40;25.95;;;10.52;;
8819;SDS011;4446;50.876;4.736;2023-11-21T10:16:11;21.70;;;9.93;;
8819;SDS011;4446;50.876;4.736;2023-11-21T10:18:42;19.30;;;9.13;;
8819;SDS011;4446;50.876;4.736;2023-11-21T10:21:12;15.40;;;7.32;;
8819;SDS011;4446;50.876;4.736;2023-11-21T10:23:40;20.17;;;8.88;;
8819;SDS011;4446;50.876;4.736;2023-11-21T10:26:08;19.65;;;9.05;;
8819;SDS011;4446;50.876;4.736;2023-11-21T10:28:41;16.73;;;9.10;;
8819;SDS011;4446;50.876;4.736;2023-11-21T10:31:21;24.95;;;10.25;;
8819;SDS011;4446;50.876;4.736;2023-11-21T10:33:49;23.48;;;9.98;;
8819;SDS011;4446;50.876;4.736;2023-11-21T10:36:26;21.40;;;9.90;;
8819;SDS011;4446;50.876;4.736;2023-11-21T10:38:53;25.40;;;9.95;;
8819;SDS011;4446;50.876;4.736;2023-11-21T10:41:20;29.90;;;10.43;;
8819;SDS011;4446;50.876;4.736;2023-11-21T10:43:47;24.25;;;9.95;;
8819;SDS011;4446;50.876;4.736;2023-11-21T10:46:14;27.50;;;10.18;;
8819;SDS011;4446;50.876;4.736;2023-11-21T10:48:41;28.15;;;11.23;;
8819;SDS011;4446;50.876;4.736;2023-11-21T10:51:08;33.08;;;12.52;;
8819;SDS011;4446;50.876;4.736;2023-11-21T10:53:39;26.20;;;11.30;;
8819;SDS011;4446;50.876;4.736;2023-11-21T10:56:08;27.50;;;10.73;;
8819;SDS011;4446;50.876;4.736;2023-11-21T10:58:42;23.95;;;9.65;;
8819;SDS011;4446;50.876;4.736;2023-11-21T11:01:09;25.40;;;10.23;;
8819;SDS011;4446;50.876;4.736;2023-11-21T11:03:39;28.15;;;11.00;;
8819;SDS011;4446;50.876;4.736;2023-11-21T11:06:07;27.25;;;10.13;;
8819;SDS011;4446;50.876;4.736;2023-11-21T11:08:36;27.17;;;11.15;;
8819;SDS011;4446;50.876;4.736;2023-11-21T11:11:05;30.90;;;10.57;;
8819;SDS011;4446;50.876;4.736;2023-11-21T11:13:34;31.05;;;10.98;;
8819;SDS011;4446;50.876;4.736;2023-11-21T11:16:01;21.45;;;9.88;;
8819;SDS011;4446;50.876;4.736;2023-11-21T11:18:32;22.17;;;10.27;;
8819;SDS011;4446;50.876;4.736;2023-11-21T11:21:00;26.00;;;10.70;;
8819;SDS011;4446;50.876;4.736;2023-11-21T11:23:37;28.30;;;11.00;;
8819;SDS011;4446;50.876;4.736;2023-11-21T11:26:16;28.30;;;10.90;;
8819;SDS011;4446;50.876;4.736;2023-11-21T11:28:55;29.35;;;10.85;;
8819;SDS011;4446;50.876;4.736;2023-11-21T11:31:36;32.70;;;11.63;;
8819;SDS011;4446;50.876;4.736;2023-11-21T11:34:14;29.08;;;10.43;;
8819;SDS011;4446;50.876;4.736;2023-11-21T11:36:47;29.05;;;10.80;;
8819;SDS011;4446;50.876;4.736;2023-11-21T11:39:26;28.90;;;11.18;;
8819;SDS011;4446;50.876;4.736;2023-11-21T11:41:55;27.02;;;10.10;;
8819;SDS011;4446;50.876;4.736;2023-11-21T11:47:16;18.92;;;8.80;;
8819;SDS011;4446;50.876;4.736;2023-11-21T11:50:00;27.15;;;9.90;;
8819;SDS011;4446;50.876;4.736;2023-11-21T11:52:36;19.20;;;8.75;;
8819;SDS011;4446;50.876;4.736;2023-11-21T11:55:06;21.08;;;8.63;;
8819;SDS011;4446;50.876;4.736;2023-11-21T11:57:37;19.67;;;8.55;;
8819;SDS011;4446;50.876;4.736;2023-11-21T12:00:09;19.42;;;8.52;;
8819;SDS011;4446;50.876;4.736;2023-11-21T12:02:36;20.63;;;8.75;;
8819;SDS011;4446;50.876;4.736;2023-11-21T12:05:06;19.77;;;8.63;;
8819;SDS011;4446;50.876;4.736;2023-11-21T12:07:50;19.30;;;7.93;;
8819;SDS011;4446;50.876;4.736;2023-11-21T12:10:20;16.30;;;7.82;;
8819;SDS011;4446;50.876;4.736;2023-11-21T12:12:53;18.67;;;7.90;;
8819;SDS011;4446;50.876;4.736;2023-11-21T12:15:21;15.88;;;7.72;;
8819;SDS011;4446;50.876;4.736;2023-11-21T12:17:49;13.88;;;7.10;;
8819;SDS011;4446;50.876;4.736;2023-11-21T12:20:18;14.00;;;7.43;;
8819;SDS011;4446;50.876;4.736;2023-11-21T12:22:46;14.52;;;7.15;;
8819;SDS011;4446;50.876;4.736;2023-11-21T12:25:14;16.17;;;7.57;;
8819;SDS011;4446;50.876;4.736;2023-11-21T12:27:43;15.73;;;6.97;;
8819;SDS011;4446;50.876;4.736;2023-11-21T12:30:13;12.38;;;6.22;;
8819;SDS011;4446;50.876;4.736;2023-11-21T12:32:41;13.93;;;6.53;;
8819;SDS011;4446;50.876;4.736;2023-11-21T12:35:08;14.13;;;6.78;;
8819;SDS011;4446;50.876;4.736;2023-11-21T12:37:36;11.48;;;5.85;;
8819;SDS011;4446;50.876;4.736;2023-11-21T12:40:04;10.40;;;5.47;;
8819;SDS011;4446;50.876;4.736;2023-11-21T12:42:36;12.77;;;7.20;;
8819;SDS011;4446;50.876;4.736;2023-11-21T12:45:09;15.05;;;6.65;;
8819;SDS011;4446;50.876;4.736;2023-11-21T12:47:42;9.52;;;5.22;;
8819;SDS011;4446;50.876;4.736;2023-11-21T12:50:10;9.82;;;5.32;;
8819;SDS011;4446;50.876;4.736;2023-11-21T12:52:40;9.02;;;5.00;;
8819;SDS011;4446;50.876;4.736;2023-11-21T12:55:13;8.23;;;4.60;;
8819;SDS011;4446;50.876;4.736;2023-11-21T12:57:42;8.68;;;5.28;;
8819;SDS011;4446;50.876;4.736;2023-11-21T13:00:10;8.32;;;4.82;;
8819;SDS011;4446;50.876;4.736;2023-11-21T13:02:52;10.73;;;4.75;;
8819;SDS011;4446;50.876;4.736;2023-11-21T13:05:27;11.73;;;4.80;;
8819;SDS011;4446;50.876;4.736;2023-11-21T13:07:56;6.95;;;4.03;;
8819;SDS011;4446;50.876;4.736;2023-11-21T13:10:25;8.30;;;4.28;;
8819;SDS011;4446;50.876;4.736;2023-11-21T13:12:56;7.40;;;4.55;;
8819;SDS011;4446;50.876;4.736;2023-11-21T13:15:25;7.32;;;4.35;;
8819;SDS011;4446;50.876;4.736;2023-11-21T13:17:54;6.35;;;3.35;;
8819;SDS011;4446;50.876;4.736;2023-11-21T13:20:22;6.40;;;3.85;;
8819;SDS011;4446;50.876;4.736;2023-11-21T13:22:51;5.15;;;3.72;;
8819;SDS011;4446;50.876;4.736;2023-11-21T13:25:22;6.50;;;4.05;;
8819;SDS011;4446;50.876;4.736;2023-11-21T13:27:52;5.43;;;3.88;;
8819;SDS011;4446;50.876;4.736;2023-11-21T13:30:19;4.95;;;3.08;;
8819;SDS011;4446;50.876;4.736;2023-11-21T13:32:51;5.45;;;3.42;;
8819;SDS011;4446;50.876;4.736;2023-11-21T13:35:19;4.10;;;2.72;;
8819;SDS011;4446;50.876;4.736;2023-11-21T13:37:49;6.25;;;3.47;;
8819;SDS011;4446;50.876;4.736;2023-11-21T13:40:21;4.18;;;3.10;;
8819;SDS011;4446;50.876;4.736;2023-11-21T13:42:51;5.15;;;3.33;;
8819;SDS011;4446;50.876;4.736;2023-11-21T13:45:20;6.05;;;3.50;;
8819;SDS011;4446;50.876;4.736;2023-11-21T13:47:48;6.60;;;3.60;;
8819;SDS011;4446;50.876;4.736;2023-11-21T13:50:17;6.15;;;3.80;;
8819;SDS011;4446;50.876;4.736;2023-11-21T13:52:49;6.35;;;3.95;;
8819;SDS011;4446;50.876;4.736;2023-11-21T13:55:18;10.10;;;3.88;;
8819;SDS011;4446;50.876;4.736;2023-11-21T13:57:47;5.90;;;3.53;;
8819;SDS011;4446;50.876;4.736;2023-11-21T14:00:16;7.00;;;3.42;;
8819;SDS011;4446;50.876;4.736;2023-11-21T14:03:01;4.85;;;3.20;;
8819;SDS011;4446;50.876;4.736;2023-11-21T14:05:35;5.80;;;3.63;;
8819;SDS011;4446;50.876;4.736;2023-11-21T14:08:01;5.85;;;3.72;;
8819;SDS011;4446;50.876;4.736;2023-11-21T14:10:30;4.88;;;3.38;;
8819;SDS011;4446;50.876;4.736;2023-11-21T14:13:05;6.57;;;3.42;;
8819;SDS011;4446;50.876;4.736;2023-11-21T14:15:32;5.20;;;3.67;;
8819;SDS011;4446;50.876;4.736;2023-11-21T14:18:03;5.65;;;3.80;;
8819;SDS011;4446;50.876;4.736;2023-11-21T14:20:34;5.00;;;3.70;;
8819;SDS011;4446;50.876;4.736;2023-11-21T14:23:02;6.22;;;3.80;;
8819;SDS011;4446;50.876;4.736;2023-11-21T14:25:29;5.93;;;3.70;;
8819;SDS011;4446;50.876;4.736;2023-11-21T14:27:57;5.63;;;3.80;;
8819;SDS011;4446;50.876;4.736;2023-11-21T14:30:24;7.20;;;4.18;;
8819;SDS011;4446;50.876;4.736;2023-11-21T14:32:52;6.97;;;4.10;;
8819;SDS011;4446;50.876;4.736;2023-11-21T14:35:19;6.72;;;3.72;;
8819;SDS011;4446;50.876;4.736;2023-11-21T14:37:47;5.55;;;3.95;;
8819;SDS011;4446;50.876;4.736;2023-11-21T14:40:14;6.63;;;4.05;;
8819;SDS011;4446;50.876;4.736;2023-11-21T14:42:43;4.28;;;3.33;;
8819;SDS011;4446;50.876;4.736;2023-11-21T14:45:12;5.47;;;3.58;;
8819;SDS011;4446;50.876;4.736;2023-11-21T14:47:44;7.38;;;3.67;;
8819;SDS011;4446;50.876;4.736;2023-11-21T14:50:18;5.38;;;3.70;;
8819;SDS011;4446;50.876;4.736;2023-11-21T14:53:14;6.38;;;3.78;;
8819;SDS011;4446;50.876;4.736;2023-11-21T14:55:42;5.18;;;3.75;;
8819;SDS011;4446;50.876;4.736;2023-11-21T14:58:21;9.23;;;3.92;;
8819;SDS011;4446;50.876;4.736;2023-11-21T15:00:53;4.47;;;3.03;;
8819;SDS011;4446;50.876;4.736;2023-11-21T15:03:23;6.53;;;3.70;;
8819;SDS011;4446;50.876;4.736;2023-11-21T15:06:08;5.93;;;3.40;;
8819;SDS011;4446;50.876;4.736;2023-11-21T15:08:54;5.65;;;3.70;;
8819;SDS011;4446;50.876;4.736;2023-11-21T15:11:43;6.60;;;3.63;;